sensor_id;sensor_type;location;lat;lon;timestamp;P1;durP1;ratioP1;P2;durP2;ratioP2
11598;SDS011;5855;48.840;9.188;2023-02-22T00:00:09;11.30;;;6.28;;
11598;SDS011;5855;48.840;9.188;2023-02-22T00:02:44;8.82;;;5.80;;
11598;SDS011;5855;48.840;9.188;2023-02-22T00:05:13;9.43;;;6.25;;
11598;SDS011;5855;48.840;9.188;2023-02-22T00:07:44;10.73;;;6.72;;
11598;SDS011;5855;48.840;9.188;2023-02-22T00:10:14;9.32;;;6.90;;
11598;SDS011;5855;48.840;9.188;2023-02-22T00:12:44;10.80;;;6.68;;
11598;SDS011;5855;48.840;9.188;2023-02-22T00:15:12;10.68;;;7.05;;
11598;SDS011;5855;48.840;9.188;2023-02-22T00:17:40;14.07;;;8.57;;
11598;SDS011;5855;48.840;9.188;2023-02-22T00:20:07;12.38;;;8.32;;
11598;SDS011;5855;48.840;9.188;2023-02-22T00:22:39;9.32;;;6.30;;
11598;SDS011;5855;48.840;9.188;2023-02-22T00:25:06;8.90;;;6.40;;
11598;SDS011;5855;48.840;9.188;2023-02-22T00:27:34;13.48;;;7.68;;
11598;SDS011;5855;48.840;9.188;2023-02-22T00:30:04;11.95;;;7.88;;
11598;SDS011;5855;48.840;9.188;2023-02-22T00:32:33;11.63;;;7.05;;
11598;SDS011;5855;48.840;9.188;2023-02-22T00:35:00;12.52;;;7.80;;
11598;SDS011;5855;48.840;9.188;2023-02-22T00:37:29;14.25;;;8.75;;
11598;SDS011;5855;48.840;9.188;2023-02-22T00:39:58;11.30;;;7.38;;
11598;SDS011;5855;48.840;9.188;2023-02-22T00:42:26;10.13;;;7.05;;
11598;SDS011;5855;48.840;9.188;2023-02-22T00:44:53;10.43;;;6.57;;
11598;SDS011;5855;48.840;9.188;2023-02-22T00:47:20;12.70;;;7.35;;
11598;SDS011;5855;48.840;9.188;2023-02-22T00:49:47;10.52;;;6.93;;
11598;SDS011;5855;48.840;9.188;2023-02-22T00:52:14;10.68;;;7.43;;
11598;SDS011;5855;48.840;9.188;2023-02-22T00:54:40;10.70;;;7.60;;
11598;SDS011;5855;48.840;9.188;2023-02-22T00:57:11;10.15;;;6.75;;
11598;SDS011;5855;48.840;9.188;2023-02-22T00:59:38;11.90;;;7.07;;
11598;SDS011;5855;48.840;9.188;2023-02-22T01:02:05;8.30;;;6.35;;
11598;SDS011;5855;48.840;9.188;2023-02-22T01:04:33;11.00;;;6.97;;
11598;SDS011;5855;48.840;9.188;2023-02-22T01:07:02;10.63;;;7.13;;
11598;SDS011;5855;48.840;9.188;2023-02-22T01:09:29;10.93;;;7.30;;
11598;SDS011;5855;48.840;9.188;2023-02-22T01:11:56;11.50;;;7.10;;
11598;SDS011;5855;48.840;9.188;2023-02-22T01:14:25;12.65;;;7.68;;
11598;SDS011;5855;48.840;9.188;2023-02-22T01:16:53;10.88;;;7.85;;
11598;SDS011;5855;48.840;9.188;2023-02-22T01:19:20;14.35;;;8.00;;
11598;SDS011;5855;48.840;9.188;2023-02-22T01:21:48;9.65;;;6.53;;
11598;SDS011;5855;48.840;9.188;2023-02-22T01:24:15;15.57;;;7.35;;
11598;SDS011;5855;48.840;9.188;2023-02-22T01:26:43;11.55;;;7.45;;
11598;SDS011;5855;48.840;9.188;2023-02-22T01:29:15;10.98;;;7.00;;
11598;SDS011;5855;48.840;9.188;2023-02-22T01:31:49;11.85;;;7.32;;
11598;SDS011;5855;48.840;9.188;2023-02-22T01:34:18;11.48;;;7.53;;
11598;SDS011;5855;48.840;9.188;2023-02-22T01:36:45;14.18;;;7.55;;
11598;SDS011;5855;48.840;9.188;2023-02-22T01:39:12;10.63;;;7.15;;
11598;SDS011;5855;48.840;9.188;2023-02-22T01:41:39;10.57;;;6.93;;
11598;SDS011;5855;48.840;9.188;2023-02-22T01:44:16;9.57;;;6.57;;
11598;SDS011;5855;48.840;9.188;2023-02-22T01:46:46;9.57;;;6.85;;
11598;SDS011;5855;48.840;9.188;2023-02-22T01:49:12;10.93;;;7.07;;
11598;SDS011;5855;48.840;9.188;2023-02-22T01:51:40;10.73;;;7.43;;
11598;SDS011;5855;48.840;9.188;2023-02-22T01:54:11;12.70;;;7.88;;
11598;SDS011;5855;48.840;9.188;2023-02-22T01:56:44;12.50;;;7.97;;
11598;SDS011;5855;48.840;9.188;2023-02-22T01:59:15;11.30;;;7.47;;
11598;SDS011;5855;48.840;9.188;2023-02-22T02:01:43;10.10;;;7.50;;
11598;SDS011;5855;48.840;9.188;2023-02-22T02:04:13;12.18;;;7.30;;
11598;SDS011;5855;48.840;9.188;2023-02-22T02:06:44;10.35;;;7.18;;
11598;SDS011;5855;48.840;9.188;2023-02-22T02:09:15;11.23;;;7.68;;
11598;SDS011;5855;48.840;9.188;2023-02-22T02:11:46;13.05;;;7.93;;
11598;SDS011;5855;48.840;9.188;2023-02-22T02:14:15;12.65;;;7.97;;
11598;SDS011;5855;48.840;9.188;2023-02-22T02:16:43;11.48;;;7.95;;
11598;SDS011;5855;48.840;9.188;2023-02-22T02:19:15;13.52;;;8.75;;
11598;SDS011;5855;48.840;9.188;2023-02-22T02:22:11;11.40;;;8.18;;
11598;SDS011;5855;48.840;9.188;2023-02-22T02:25:00;12.40;;;8.75;;
11598;SDS011;5855;48.840;9.188;2023-02-22T02:27:50;11.57;;;8.88;;
11598;SDS011;5855;48.840;9.188;2023-02-22T02:30:48;13.98;;;9.57;;
11598;SDS011;5855;48.840;9.188;2023-02-22T02:33:40;12.15;;;9.32;;
11598;SDS011;5855;48.840;9.188;2023-02-22T02:36:11;12.52;;;8.95;;
11598;SDS011;5855;48.840;9.188;2023-02-22T02:38:43;14.10;;;9.38;;
11598;SDS011;5855;48.840;9.188;2023-02-22T02:41:14;14.52;;;9.18;;
11598;SDS011;5855;48.840;9.188;2023-02-22T02:43:46;15.30;;;8.73;;
11598;SDS011;5855;48.840;9.188;2023-02-22T02:46:19;12.40;;;9.23;;
11598;SDS011;5855;48.840;9.188;2023-02-22T02:48:52;11.35;;;8.80;;
11598;SDS011;5855;48.840;9.188;2023-02-22T02:51:23;12.02;;;9.32;;
11598;SDS011;5855;48.840;9.188;2023-02-22T02:53:53;13.27;;;9.32;;
11598;SDS011;5855;48.840;9.188;2023-02-22T02:56:21;13.23;;;9.48;;
11598;SDS011;5855;48.840;9.188;2023-02-22T02:58:49;11.70;;;9.10;;
11598;SDS011;5855;48.840;9.188;2023-02-22T03:01:19;12.52;;;8.98;;
11598;SDS011;5855;48.840;9.188;2023-02-22T03:04:04;11.50;;;9.43;;
11598;SDS011;5855;48.840;9.188;2023-02-22T03:07:02;14.88;;;8.73;;
11598;SDS011;5855;48.840;9.188;2023-02-22T03:09:52;12.60;;;8.68;;
11598;SDS011;5855;48.840;9.188;2023-02-22T03:12:30;13.45;;;8.80;;
11598;SDS011;5855;48.840;9.188;2023-02-22T03:15:06;11.20;;;8.32;;
11598;SDS011;5855;48.840;9.188;2023-02-22T03:17:46;10.80;;;8.40;;
11598;SDS011;5855;48.840;9.188;2023-02-22T03:20:21;11.00;;;8.52;;
11598;SDS011;5855;48.840;9.188;2023-02-22T03:22:58;10.88;;;8.25;;
11598;SDS011;5855;48.840;9.188;2023-02-22T03:25:32;12.57;;;8.05;;
11598;SDS011;5855;48.840;9.188;2023-02-22T03:28:02;11.25;;;8.10;;
11598;SDS011;5855;48.840;9.188;2023-02-22T03:30:35;10.13;;;7.57;;
11598;SDS011;5855;48.840;9.188;2023-02-22T03:33:05;10.18;;;7.80;;
11598;SDS011;5855;48.840;9.188;2023-02-22T03:35:38;12.15;;;7.80;;
11598;SDS011;5855;48.840;9.188;2023-02-22T03:38:10;11.25;;;7.80;;
11598;SDS011;5855;48.840;9.188;2023-02-22T03:40:42;9.52;;;7.03;;
11598;SDS011;5855;48.840;9.188;2023-02-22T03:43:12;9.98;;;7.95;;
11598;SDS011;5855;48.840;9.188;2023-02-22T03:45:40;11.30;;;7.45;;
11598;SDS011;5855;48.840;9.188;2023-02-22T03:48:12;12.30;;;6.85;;
11598;SDS011;5855;48.840;9.188;2023-02-22T03:50:45;8.32;;;6.82;;
11598;SDS011;5855;48.840;9.188;2023-02-22T03:53:15;10.32;;;7.03;;
11598;SDS011;5855;48.840;9.188;2023-02-22T03:55:43;9.27;;;7.22;;
11598;SDS011;5855;48.840;9.188;2023-02-22T03:58:11;9.82;;;7.10;;
11598;SDS011;5855;48.840;9.188;2023-02-22T04:00:40;11.07;;;7.07;;
11598;SDS011;5855;48.840;9.188;2023-02-22T04:03:08;11.40;;;6.93;;
11598;SDS011;5855;48.840;9.188;2023-02-22T04:05:35;11.38;;;7.20;;
11598;SDS011;5855;48.840;9.188;2023-02-22T04:08:04;11.43;;;7.05;;
11598;SDS011;5855;48.840;9.188;2023-02-22T04:10:31;8.55;;;6.85;;
11598;SDS011;5855;48.840;9.188;2023-02-22T04:12:58;9.90;;;6.35;;
11598;SDS011;5855;48.840;9.188;2023-02-22T04:15:25;7.95;;;6.40;;
11598;SDS011;5855;48.840;9.188;2023-02-22T04:17:52;9.00;;;7.07;;
11598;SDS011;5855;48.840;9.188;2023-02-22T04:20:19;9.02;;;6.57;;
11598;SDS011;5855;48.840;9.188;2023-02-22T04:22:49;12.13;;;6.68;;
11598;SDS011;5855;48.840;9.188;2023-02-22T04:25:18;10.48;;;6.93;;
11598;SDS011;5855;48.840;9.188;2023-02-22T04:27:46;9.05;;;6.82;;
11598;SDS011;5855;48.840;9.188;2023-02-22T04:30:15;10.02;;;6.78;;
11598;SDS011;5855;48.840;9.188;2023-02-22T04:32:43;7.90;;;6.57;;
11598;SDS011;5855;48.840;9.188;2023-02-22T04:35:09;8.93;;;6.45;;
11598;SDS011;5855;48.840;9.188;2023-02-22T04:37:38;8.98;;;7.00;;
11598;SDS011;5855;48.840;9.188;2023-02-22T04:40:06;8.65;;;6.72;;
11598;SDS011;5855;48.840;9.188;2023-02-22T04:42:37;9.38;;;6.75;;
11598;SDS011;5855;48.840;9.188;2023-02-22T04:45:05;8.38;;;6.80;;
11598;SDS011;5855;48.840;9.188;2023-02-22T04:47:33;9.52;;;6.75;;
11598;SDS011;5855;48.840;9.188;2023-02-22T04:50:00;8.35;;;6.57;;
11598;SDS011;5855;48.840;9.188;2023-02-22T04:52:27;9.25;;;6.47;;
11598;SDS011;5855;48.840;9.188;2023-02-22T04:54:54;8.88;;;6.90;;
11598;SDS011;5855;48.840;9.188;2023-02-22T04:57:21;9.95;;;7.20;;
11598;SDS011;5855;48.840;9.188;2023-02-22T04:59:49;10.18;;;6.43;;
11598;SDS011;5855;48.840;9.188;2023-02-22T05:02:16;9.18;;;6.72;;
11598;SDS011;5855;48.840;9.188;2023-02-22T05:04:45;9.07;;;7.38;;
11598;SDS011;5855;48.840;9.188;2023-02-22T05:07:12;9.07;;;6.30;;
11598;SDS011;5855;48.840;9.188;2023-02-22T05:09:39;7.85;;;6.40;;
11598;SDS011;5855;48.840;9.188;2023-02-22T05:12:06;9.90;;;6.50;;
11598;SDS011;5855;48.840;9.188;2023-02-22T05:14:33;11.18;;;6.45;;
11598;SDS011;5855;48.840;9.188;2023-02-22T05:17:02;8.45;;;6.55;;
11598;SDS011;5855;48.840;9.188;2023-02-22T05:19:29;8.00;;;6.70;;
11598;SDS011;5855;48.840;9.188;2023-02-22T05:21:55;8.00;;;6.60;;
11598;SDS011;5855;48.840;9.188;2023-02-22T05:24:22;10.15;;;6.72;;
11598;SDS011;5855;48.840;9.188;2023-02-22T05:26:49;6.97;;;5.95;;
11598;SDS011;5855;48.840;9.188;2023-02-22T05:29:17;10.32;;;6.53;;
11598;SDS011;5855;48.840;9.188;2023-02-22T05:31:45;6.93;;;6.00;;
11598;SDS011;5855;48.840;9.188;2023-02-22T05:34:13;7.30;;;6.25;;
11598;SDS011;5855;48.840;9.188;2023-02-22T05:36:40;8.50;;;6.20;;
11598;SDS011;5855;48.840;9.188;2023-02-22T05:39:07;8.45;;;6.45;;
11598;SDS011;5855;48.840;9.188;2023-02-22T05:41:34;7.20;;;6.03;;
11598;SDS011;5855;48.840;9.188;2023-02-22T05:44:01;7.55;;;6.40;;
11598;SDS011;5855;48.840;9.188;2023-02-22T05:46:28;8.40;;;6.22;;
11598;SDS011;5855;48.840;9.188;2023-02-22T05:48:55;7.75;;;6.22;;
11598;SDS011;5855;48.840;9.188;2023-02-22T05:51:23;8.02;;;5.97;;
11598;SDS011;5855;48.840;9.188;2023-02-22T05:53:50;7.07;;;6.05;;
11598;SDS011;5855;48.840;9.188;2023-02-22T05:56:20;9.38;;;6.53;;
11598;SDS011;5855;48.840;9.188;2023-02-22T05:58:49;8.98;;;6.53;;
11598;SDS011;5855;48.840;9.188;2023-02-22T06:01:15;8.32;;;6.20;;
11598;SDS011;5855;48.840;9.188;2023-02-22T06:03:45;8.48;;;6.18;;
11598;SDS011;5855;48.840;9.188;2023-02-22T06:06:12;8.30;;;5.95;;
11598;SDS011;5855;48.840;9.188;2023-02-22T06:08:40;7.88;;;6.25;;
11598;SDS011;5855;48.840;9.188;2023-02-22T06:11:07;9.23;;;6.38;;
11598;SDS011;5855;48.840;9.188;2023-02-22T06:13:34;9.63;;;6.25;;
11598;SDS011;5855;48.840;9.188;2023-02-22T06:16:01;11.45;;;7.05;;
11598;SDS011;5855;48.840;9.188;2023-02-22T06:18:28;8.13;;;6.50;;
11598;SDS011;5855;48.840;9.188;2023-02-22T06:20:55;9.75;;;6.60;;
11598;SDS011;5855;48.840;9.188;2023-02-22T06:23:22;10.32;;;7.15;;
11598;SDS011;5855;48.840;9.188;2023-02-22T06:25:50;9.70;;;6.65;;
11598;SDS011;5855;48.840;9.188;2023-02-22T06:28:17;9.48;;;6.40;;
11598;SDS011;5855;48.840;9.188;2023-02-22T06:30:44;9.93;;;7.13;;
11598;SDS011;5855;48.840;9.188;2023-02-22T06:33:11;10.93;;;6.10;;
11598;SDS011;5855;48.840;9.188;2023-02-22T06:35:38;9.77;;;6.95;;
11598;SDS011;5855;48.840;9.188;2023-02-22T06:38:05;9.27;;;6.45;;
11598;SDS011;5855;48.840;9.188;2023-02-22T06:40:32;8.50;;;6.70;;
11598;SDS011;5855;48.840;9.188;2023-02-22T06:43:00;9.13;;;6.40;;
11598;SDS011;5855;48.840;9.188;2023-02-22T06:45:27;10.82;;;6.97;;
11598;SDS011;5855;48.840;9.188;2023-02-22T06:47:54;8.13;;;6.72;;
11598;SDS011;5855;48.840;9.188;2023-02-22T06:50:22;8.27;;;6.63;;
11598;SDS011;5855;48.840;9.188;2023-02-22T06:52:50;9.05;;;7.15;;
11598;SDS011;5855;48.840;9.188;2023-02-22T06:55:17;9.90;;;7.28;;
11598;SDS011;5855;48.840;9.188;2023-02-22T06:57:45;10.00;;;6.78;;
11598;SDS011;5855;48.840;9.188;2023-02-22T07:00:15;9.38;;;6.78;;
11598;SDS011;5855;48.840;9.188;2023-02-22T07:02:43;10.85;;;7.13;;
11598;SDS011;5855;48.840;9.188;2023-02-22T07:05:10;14.23;;;6.57;;
11598;SDS011;5855;48.840;9.188;2023-02-22T07:07:37;14.63;;;7.07;;
11598;SDS011;5855;48.840;9.188;2023-02-22T07:10:05;9.88;;;6.35;;
11598;SDS011;5855;48.840;9.188;2023-02-22T07:12:33;10.40;;;7.10;;
11598;SDS011;5855;48.840;9.188;2023-02-22T07:14:59;10.20;;;7.32;;
11598;SDS011;5855;48.840;9.188;2023-02-22T07:17:28;10.93;;;6.63;;
11598;SDS011;5855;48.840;9.188;2023-02-22T07:19:54;8.60;;;6.72;;
11598;SDS011;5855;48.840;9.188;2023-02-22T07:22:21;10.57;;;6.72;;
11598;SDS011;5855;48.840;9.188;2023-02-22T07:24:48;7.65;;;6.60;;
11598;SDS011;5855;48.840;9.188;2023-02-22T07:27:15;8.63;;;6.40;;
11598;SDS011;5855;48.840;9.188;2023-02-22T07:29:43;10.98;;;6.57;;
11598;SDS011;5855;48.840;9.188;2023-02-22T07:32:10;8.13;;;6.00;;
11598;SDS011;5855;48.840;9.188;2023-02-22T07:34:38;8.82;;;6.30;;
11598;SDS011;5855;48.840;9.188;2023-02-22T07:37:06;9.13;;;6.90;;
11598;SDS011;5855;48.840;9.188;2023-02-22T07:39:33;15.45;;;7.50;;
11598;SDS011;5855;48.840;9.188;2023-02-22T07:42:02;10.77;;;6.50;;
11598;SDS011;5855;48.840;9.188;2023-02-22T07:44:29;7.30;;;5.80;;
11598;SDS011;5855;48.840;9.188;2023-02-22T07:46:56;8.50;;;5.88;;
11598;SDS011;5855;48.840;9.188;2023-02-22T07:49:23;8.70;;;5.90;;
11598;SDS011;5855;48.840;9.188;2023-02-22T07:51:51;9.50;;;6.40;;
11598;SDS011;5855;48.840;9.188;2023-02-22T07:54:18;9.18;;;6.03;;
11598;SDS011;5855;48.840;9.188;2023-02-22T07:56:45;8.18;;;6.45;;
11598;SDS011;5855;48.840;9.188;2023-02-22T07:59:13;8.45;;;6.10;;
11598;SDS011;5855;48.840;9.188;2023-02-22T08:01:40;7.50;;;5.82;;
11598;SDS011;5855;48.840;9.188;2023-02-22T08:04:07;9.10;;;6.13;;
11598;SDS011;5855;48.840;9.188;2023-02-22T08:06:34;8.35;;;5.82;;
11598;SDS011;5855;48.840;9.188;2023-02-22T08:09:02;7.80;;;6.47;;
11598;SDS011;5855;48.840;9.188;2023-02-22T08:11:29;8.10;;;6.30;;
11598;SDS011;5855;48.840;9.188;2023-02-22T08:13:56;8.93;;;5.82;;
11598;SDS011;5855;48.840;9.188;2023-02-22T08:16:23;9.45;;;6.40;;
11598;SDS011;5855;48.840;9.188;2023-02-22T08:18:49;10.65;;;6.53;;
11598;SDS011;5855;48.840;9.188;2023-02-22T08:21:16;11.77;;;7.03;;
11598;SDS011;5855;48.840;9.188;2023-02-22T08:23:43;11.38;;;6.80;;
11598;SDS011;5855;48.840;9.188;2023-02-22T08:26:11;9.75;;;7.55;;
11598;SDS011;5855;48.840;9.188;2023-02-22T08:28:42;8.82;;;7.18;;
11598;SDS011;5855;48.840;9.188;2023-02-22T08:31:09;8.25;;;6.60;;
11598;SDS011;5855;48.840;9.188;2023-02-22T08:33:36;11.73;;;7.25;;
11598;SDS011;5855;48.840;9.188;2023-02-22T08:36:03;8.45;;;6.95;;
11598;SDS011;5855;48.840;9.188;2023-02-22T08:38:30;13.38;;;7.20;;
11598;SDS011;5855;48.840;9.188;2023-02-22T08:40:58;11.55;;;7.05;;
11598;SDS011;5855;48.840;9.188;2023-02-22T08:43:26;10.68;;;7.22;;
11598;SDS011;5855;48.840;9.188;2023-02-22T08:45:53;13.77;;;7.63;;
11598;SDS011;5855;48.840;9.188;2023-02-22T08:48:20;10.57;;;6.85;;
11598;SDS011;5855;48.840;9.188;2023-02-22T08:50:47;11.23;;;6.78;;
11598;SDS011;5855;48.840;9.188;2023-02-22T08:53:14;13.65;;;7.40;;
11598;SDS011;5855;48.840;9.188;2023-02-22T08:55:42;9.30;;;6.85;;
11598;SDS011;5855;48.840;9.188;2023-02-22T08:58:09;13.05;;;7.55;;
11598;SDS011;5855;48.840;9.188;2023-02-22T09:00:38;10.65;;;7.38;;
11598;SDS011;5855;48.840;9.188;2023-02-22T09:03:06;16.85;;;8.20;;
11598;SDS011;5855;48.840;9.188;2023-02-22T09:05:38;10.63;;;7.00;;
11598;SDS011;5855;48.840;9.188;2023-02-22T09:08:05;11.43;;;7.38;;
11598;SDS011;5855;48.840;9.188;2023-02-22T09:10:33;11.30;;;7.10;;
11598;SDS011;5855;48.840;9.188;2023-02-22T09:13:01;11.45;;;6.85;;
11598;SDS011;5855;48.840;9.188;2023-02-22T09:15:31;11.15;;;6.30;;
11598;SDS011;5855;48.840;9.188;2023-02-22T09:18:01;10.52;;;6.38;;
11598;SDS011;5855;48.840;9.188;2023-02-22T09:20:29;7.00;;;5.40;;
11598;SDS011;5855;48.840;9.188;2023-02-22T09:22:56;10.35;;;6.40;;
11598;SDS011;5855;48.840;9.188;2023-02-22T09:25:23;9.68;;;5.40;;
11598;SDS011;5855;48.840;9.188;2023-02-22T09:27:51;5.85;;;4.68;;
11598;SDS011;5855;48.840;9.188;2023-02-22T09:30:20;5.68;;;4.65;;
11598;SDS011;5855;48.840;9.188;2023-02-22T09:32:49;8.00;;;5.25;;
11598;SDS011;5855;48.840;9.188;2023-02-22T09:35:19;7.45;;;5.40;;
11598;SDS011;5855;48.840;9.188;2023-02-22T09:37:50;6.45;;;4.70;;
11598;SDS011;5855;48.840;9.188;2023-02-22T09:40:18;9.90;;;5.32;;
11598;SDS011;5855;48.840;9.188;2023-02-22T09:42:52;5.88;;;5.13;;
11598;SDS011;5855;48.840;9.188;2023-02-22T09:45:30;9.52;;;5.05;;
11598;SDS011;5855;48.840;9.188;2023-02-22T09:48:01;8.15;;;5.38;;
11598;SDS011;5855;48.840;9.188;2023-02-22T09:50:35;9.73;;;6.10;;
11598;SDS011;5855;48.840;9.188;2023-02-22T09:53:07;7.30;;;5.07;;
11598;SDS011;5855;48.840;9.188;2023-02-22T09:55:47;9.45;;;5.72;;
11598;SDS011;5855;48.840;9.188;2023-02-22T09:58:17;8.05;;;5.78;;
11598;SDS011;5855;48.840;9.188;2023-02-22T10:00:49;8.07;;;5.45;;
11598;SDS011;5855;48.840;9.188;2023-02-22T10:03:24;6.90;;;5.60;;
11598;SDS011;5855;48.840;9.188;2023-02-22T10:05:57;8.70;;;5.80;;
11598;SDS011;5855;48.840;9.188;2023-02-22T10:08:29;6.70;;;5.65;;
11598;SDS011;5855;48.840;9.188;2023-02-22T10:11:00;7.00;;;5.18;;
11598;SDS011;5855;48.840;9.188;2023-02-22T10:13:38;6.13;;;5.20;;
11598;SDS011;5855;48.840;9.188;2023-02-22T10:16:13;8.60;;;5.90;;
11598;SDS011;5855;48.840;9.188;2023-02-22T10:18:58;8.52;;;5.63;;
11598;SDS011;5855;48.840;9.188;2023-02-22T10:21:40;10.27;;;5.50;;
11598;SDS011;5855;48.840;9.188;2023-02-22T10:24:26;6.75;;;5.40;;
11598;SDS011;5855;48.840;9.188;2023-02-22T10:27:02;8.23;;;5.97;;
11598;SDS011;5855;48.840;9.188;2023-02-22T10:29:33;7.32;;;6.03;;
11598;SDS011;5855;48.840;9.188;2023-02-22T10:32:07;7.65;;;5.70;;
11598;SDS011;5855;48.840;9.188;2023-02-22T10:34:38;6.80;;;5.80;;
11598;SDS011;5855;48.840;9.188;2023-02-22T10:37:15;7.15;;;6.03;;
11598;SDS011;5855;48.840;9.188;2023-02-22T10:39:49;9.52;;;6.13;;
11598;SDS011;5855;48.840;9.188;2023-02-22T10:42:19;8.50;;;6.20;;
11598;SDS011;5855;48.840;9.188;2023-02-22T10:44:47;12.43;;;5.65;;
11598;SDS011;5855;48.840;9.188;2023-02-22T10:47:14;9.18;;;5.90;;
11598;SDS011;5855;48.840;9.188;2023-02-22T10:49:44;8.57;;;6.35;;
11598;SDS011;5855;48.840;9.188;2023-02-22T10:52:18;8.32;;;5.60;;
11598;SDS011;5855;48.840;9.188;2023-02-22T10:54:51;8.02;;;5.63;;
11598;SDS011;5855;48.840;9.188;2023-02-22T10:57:21;8.07;;;5.68;;
11598;SDS011;5855;48.840;9.188;2023-02-22T10:59:51;8.85;;;6.20;;
11598;SDS011;5855;48.840;9.188;2023-02-22T11:02:23;7.10;;;5.75;;
11598;SDS011;5855;48.840;9.188;2023-02-22T11:04:56;8.32;;;6.35;;
11598;SDS011;5855;48.840;9.188;2023-02-22T11:07:27;9.77;;;6.68;;
11598;SDS011;5855;48.840;9.188;2023-02-22T11:09:55;7.57;;;6.15;;
11598;SDS011;5855;48.840;9.188;2023-02-22T11:12:26;8.80;;;6.95;;
11598;SDS011;5855;48.840;9.188;2023-02-22T11:14:54;8.68;;;6.97;;
11598;SDS011;5855;48.840;9.188;2023-02-22T11:17:25;8.13;;;6.50;;
11598;SDS011;5855;48.840;9.188;2023-02-22T11:19:55;7.82;;;6.03;;
11598;SDS011;5855;48.840;9.188;2023-02-22T11:22:24;8.02;;;6.28;;
11598;SDS011;5855;48.840;9.188;2023-02-22T11:24:55;8.82;;;6.60;;
11598;SDS011;5855;48.840;9.188;2023-02-22T11:27:29;10.43;;;7.30;;
11598;SDS011;5855;48.840;9.188;2023-02-22T11:30:07;7.88;;;6.75;;
11598;SDS011;5855;48.840;9.188;2023-02-22T11:32:52;9.43;;;7.13;;
11598;SDS011;5855;48.840;9.188;2023-02-22T11:35:32;10.98;;;7.13;;
11598;SDS011;5855;48.840;9.188;2023-02-22T11:38:13;9.60;;;6.35;;
11598;SDS011;5855;48.840;9.188;2023-02-22T11:40:43;8.48;;;6.43;;
11598;SDS011;5855;48.840;9.188;2023-02-22T11:43:13;9.90;;;7.05;;
11598;SDS011;5855;48.840;9.188;2023-02-22T11:45:54;10.57;;;8.20;;
11598;SDS011;5855;48.840;9.188;2023-02-22T11:48:24;8.23;;;7.38;;
11598;SDS011;5855;48.840;9.188;2023-02-22T11:50:56;8.95;;;8.07;;
11598;SDS011;5855;48.840;9.188;2023-02-22T11:53:36;9.45;;;7.22;;
11598;SDS011;5855;48.840;9.188;2023-02-22T11:56:13;9.07;;;7.25;;
11598;SDS011;5855;48.840;9.188;2023-02-22T11:58:45;8.95;;;7.97;;
11598;SDS011;5855;48.840;9.188;2023-02-22T12:01:21;8.60;;;7.25;;
11598;SDS011;5855;48.840;9.188;2023-02-22T12:07:14;10.25;;;7.28;;
11598;SDS011;5855;48.840;9.188;2023-02-22T12:09:50;8.07;;;7.28;;
11598;SDS011;5855;48.840;9.188;2023-02-22T12:12:27;7.35;;;6.40;;
11598;SDS011;5855;48.840;9.188;2023-02-22T12:15:05;10.50;;;7.35;;
11598;SDS011;5855;48.840;9.188;2023-02-22T12:17:41;8.32;;;7.38;;
11598;SDS011;5855;48.840;9.188;2023-02-22T12:20:16;9.75;;;6.88;;
11598;SDS011;5855;48.840;9.188;2023-02-22T12:22:57;7.97;;;6.03;;
11598;SDS011;5855;48.840;9.188;2023-02-22T12:25:30;8.07;;;6.55;;
11598;SDS011;5855;48.840;9.188;2023-02-22T12:28:06;6.70;;;6.07;;
11598;SDS011;5855;48.840;9.188;2023-02-22T12:30:42;8.07;;;6.80;;
11598;SDS011;5855;48.840;9.188;2023-02-22T12:33:16;8.05;;;5.80;;
11598;SDS011;5855;48.840;9.188;2023-02-22T12:35:49;7.90;;;6.35;;
11598;SDS011;5855;48.840;9.188;2023-02-22T12:38:19;8.25;;;6.60;;
11598;SDS011;5855;48.840;9.188;2023-02-22T12:40:53;10.27;;;6.68;;
11598;SDS011;5855;48.840;9.188;2023-02-22T12:43:24;8.25;;;6.55;;
11598;SDS011;5855;48.840;9.188;2023-02-22T12:45:56;8.57;;;6.63;;
11598;SDS011;5855;48.840;9.188;2023-02-22T12:48:32;7.78;;;6.07;;
11598;SDS011;5855;48.840;9.188;2023-02-22T12:51:14;8.05;;;6.00;;
11598;SDS011;5855;48.840;9.188;2023-02-22T12:53:50;8.57;;;6.68;;
11598;SDS011;5855;48.840;9.188;2023-02-22T12:56:29;8.10;;;6.38;;
11598;SDS011;5855;48.840;9.188;2023-02-22T12:59:00;7.13;;;6.32;;
11598;SDS011;5855;48.840;9.188;2023-02-22T13:01:37;8.15;;;6.65;;
11598;SDS011;5855;48.840;9.188;2023-02-22T13:04:08;9.30;;;6.72;;
11598;SDS011;5855;48.840;9.188;2023-02-22T13:06:38;6.10;;;5.50;;
11598;SDS011;5855;48.840;9.188;2023-02-22T13:09:20;7.50;;;6.25;;
11598;SDS011;5855;48.840;9.188;2023-02-22T13:12:02;7.45;;;5.57;;
11598;SDS011;5855;48.840;9.188;2023-02-22T13:14:37;9.93;;;5.70;;
11598;SDS011;5855;48.840;9.188;2023-02-22T13:17:12;8.02;;;6.30;;
11598;SDS011;5855;48.840;9.188;2023-02-22T13:19:46;6.30;;;5.47;;
11598;SDS011;5855;48.840;9.188;2023-02-22T13:22:18;8.93;;;5.88;;
11598;SDS011;5855;48.840;9.188;2023-02-22T13:24:55;6.47;;;5.70;;
11598;SDS011;5855;48.840;9.188;2023-02-22T13:27:32;6.70;;;4.93;;
11598;SDS011;5855;48.840;9.188;2023-02-22T13:30:04;5.45;;;4.90;;
11598;SDS011;5855;48.840;9.188;2023-02-22T13:32:41;5.57;;;4.72;;
11598;SDS011;5855;48.840;9.188;2023-02-22T13:35:33;6.63;;;4.35;;
11598;SDS011;5855;48.840;9.188;2023-02-22T13:41:21;6.75;;;4.60;;
11598;SDS011;5855;48.840;9.188;2023-02-22T13:44:18;4.93;;;4.43;;
11598;SDS011;5855;48.840;9.188;2023-02-22T13:47:12;5.32;;;4.13;;
11598;SDS011;5855;48.840;9.188;2023-02-22T13:49:58;4.18;;;3.78;;
11598;SDS011;5855;48.840;9.188;2023-02-22T13:52:42;5.70;;;4.45;;
11598;SDS011;5855;48.840;9.188;2023-02-22T13:55:16;6.30;;;4.38;;
11598;SDS011;5855;48.840;9.188;2023-02-22T13:57:46;5.65;;;4.93;;
11598;SDS011;5855;48.840;9.188;2023-02-22T14:00:37;4.72;;;4.32;;
11598;SDS011;5855;48.840;9.188;2023-02-22T14:03:16;7.18;;;6.15;;
11598;SDS011;5855;48.840;9.188;2023-02-22T14:06:00;6.50;;;5.90;;
11598;SDS011;5855;48.840;9.188;2023-02-22T14:08:41;7.80;;;5.90;;
11598;SDS011;5855;48.840;9.188;2023-02-22T14:14:10;7.07;;;6.13;;
11598;SDS011;5855;48.840;9.188;2023-02-22T14:16:40;9.25;;;6.20;;
11598;SDS011;5855;48.840;9.188;2023-02-22T14:19:12;7.03;;;6.28;;
11598;SDS011;5855;48.840;9.188;2023-02-22T14:24:39;9.40;;;7.25;;
11598;SDS011;5855;48.840;9.188;2023-02-22T14:27:08;11.48;;;8.05;;
11598;SDS011;5855;48.840;9.188;2023-02-22T14:29:36;9.02;;;7.25;;
11598;SDS011;5855;48.840;9.188;2023-02-22T14:32:05;7.90;;;7.10;;
11598;SDS011;5855;48.840;9.188;2023-02-22T14:34:39;9.73;;;7.38;;
11598;SDS011;5855;48.840;9.188;2023-02-22T14:37:10;8.13;;;7.25;;
11598;SDS011;5855;48.840;9.188;2023-02-22T14:39:40;9.18;;;7.82;;
11598;SDS011;5855;48.840;9.188;2023-02-22T14:42:09;8.13;;;6.93;;
11598;SDS011;5855;48.840;9.188;2023-02-22T14:44:47;11.63;;;8.40;;
11598;SDS011;5855;48.840;9.188;2023-02-22T14:47:23;9.75;;;7.28;;
11598;SDS011;5855;48.840;9.188;2023-02-22T14:49:55;12.05;;;8.90;;
11598;SDS011;5855;48.840;9.188;2023-02-22T14:52:28;10.85;;;8.30;;
11598;SDS011;5855;48.840;9.188;2023-02-22T14:55:01;9.60;;;8.32;;
11598;SDS011;5855;48.840;9.188;2023-02-22T14:57:35;10.82;;;8.77;;
11598;SDS011;5855;48.840;9.188;2023-02-22T15:00:13;10.38;;;8.90;;
11598;SDS011;5855;48.840;9.188;2023-02-22T15:02:45;12.85;;;8.18;;
11598;SDS011;5855;48.840;9.188;2023-02-22T15:05:13;13.20;;;8.60;;
11598;SDS011;5855;48.840;9.188;2023-02-22T15:07:51;11.32;;;8.55;;
11598;SDS011;5855;48.840;9.188;2023-02-22T15:10:22;10.38;;;8.48;;
11598;SDS011;5855;48.840;9.188;2023-02-22T15:12:52;11.77;;;9.13;;
11598;SDS011;5855;48.840;9.188;2023-02-22T15:15:32;10.18;;;9.18;;
11598;SDS011;5855;48.840;9.188;2023-02-22T15:18:02;12.38;;;8.93;;
11598;SDS011;5855;48.840;9.188;2023-02-22T15:20:31;12.45;;;9.63;;
11598;SDS011;5855;48.840;9.188;2023-02-22T15:23:03;12.00;;;9.60;;
11598;SDS011;5855;48.840;9.188;2023-02-22T15:25:30;10.63;;;8.23;;
11598;SDS011;5855;48.840;9.188;2023-02-22T15:28:02;13.00;;;9.27;;
11598;SDS011;5855;48.840;9.188;2023-02-22T15:30:33;11.45;;;10.25;;